Time;durP1;ratioP1;P1;durP2;ratioP2;P2;SDS_P1;SDS_P2;PMS_P1;PMS_P2;Temp;Humidity;BMP_temperature;BMP_pressure;BME280_temperature;BME280_humidity;BME280_pressure;Samples;Min_cycle;Max_cycle;Signal;HPM_P1;HPM_P2
2022/04/29 00:02:08;;;;;;;27.60;17.23;;;;;;;;;;5052224;28;20057;-63
2022/04/29 00:04:37;;;;;;;29.83;16.90;;;;;;;;;;5052159;28;20045;-64
2022/04/29 00:07:09;;;;;;;28.27;18.15;;;;;;;;;;5052595;28;20524;-64
2022/04/29 00:09:37;;;;;;;27.52;16.33;;;;;;;;;;5052110;28;20055;-64
2022/04/29 00:12:06;;;;;;;27.52;17.35;;;;;;;;;;5052264;28;20041;-63
2022/04/29 00:14:33;;;;;;;28.02;16.50;;;;;;;;;;5052202;28;20067;-63
2022/04/29 00:17:00;;;;;;;25.90;16.80;;;;;;;;;;5052212;28;20053;-64
2022/04/29 00:19:27;;;;;;;26.83;17.20;;;;;;;;;;5052177;28;20041;-63
2022/04/29 00:21:54;;;;;;;25.48;16.88;;;;;;;;;;5052138;28;20098;-64
2022/04/29 00:24:21;;;;;;;31.73;19.73;;;;;;;;;;5051816;28;20049;-63
2022/04/29 00:26:49;;;;;;;28.10;18.98;;;;;;;;;;5052029;28;20051;-63
2022/04/29 00:29:16;;;;;;;27.15;18.55;;;;;;;;;;5052062;28;20094;-64
2022/04/29 00:31:43;;;;;;;33.85;19.52;;;;;;;;;;5052603;28;20053;-63
2022/04/29 00:34:11;;;;;;;26.85;18.63;;;;;;;;;;5052071;28;20450;-64
2022/04/29 00:36:38;;;;;;;28.05;18.40;;;;;;;;;;5051749;28;20132;-63
2022/04/29 00:39:05;;;;;;;28.80;18.77;;;;;;;;;;5051907;28;20055;-62
2022/04/29 00:41:32;;;;;;;27.77;18.48;;;;;;;;;;5051710;28;20084;-62
2022/04/29 00:44:02;;;;;;;29.73;19.30;;;;;;;;;;5053030;28;20411;-63
2022/04/29 00:46:29;;;;;;;25.27;19.02;;;;;;;;;;5055936;28;20405;-65
2022/04/29 00:48:56;;;;;;;25.80;18.60;;;;;;;;;;5056011;28;20047;-63
2022/04/29 00:51:23;;;;;;;33.15;18.90;;;;;;;;;;5055911;28;20060;-64
2022/04/29 00:53:51;;;;;;;32.03;19.85;;;;;;;;;;5056184;28;20049;-63
2022/04/29 00:56:21;;;;;;;30.90;20.38;;;;;;;;;;5055774;28;20057;-63
2022/04/29 00:58:56;;;;;;;29.13;18.75;;;;;;;;;;5056371;28;20041;-63
2022/04/29 01:01:26;;;;;;;30.35;18.77;;;;;;;;;;5056125;28;20421;-63
2022/04/29 01:03:55;;;;;;;30.52;18.77;;;;;;;;;;5055904;28;20057;-63
2022/04/29 01:06:25;;;;;;;25.55;18.02;;;;;;;;;;5055849;28;20436;-63
2022/04/29 01:08:52;;;;;;;27.73;17.40;;;;;;;;;;5055533;28;20045;-64
2022/04/29 01:11:22;;;;;;;27.50;18.33;;;;;;;;;;5055393;28;20122;-63
2022/04/29 01:13:50;;;;;;;29.13;18.20;;;;;;;;;;5055651;28;20053;-62
2022/04/29 01:16:19;;;;;;;27.75;17.48;;;;;;;;;;5055723;28;20504;-63
2022/04/29 01:18:50;;;;;;;32.97;18.30;;;;;;;;;;5055402;28;20041;-63
2022/04/29 01:21:17;;;;;;;29.60;17.42;;;;;;;;;;5055253;28;20059;-63
2022/04/29 01:23:46;;;;;;;25.40;17.20;;;;;;;;;;5055354;28;20095;-63
2022/04/29 01:26:16;;;;;;;24.05;16.65;;;;;;;;;;5055165;28;20483;-63
2022/04/29 01:28:45;;;;;;;25.80;16.63;;;;;;;;;;5055370;28;20048;-64
2022/04/29 01:31:14;;;;;;;28.50;16.25;;;;;;;;;;5055168;28;20405;-62
2022/04/29 01:33:42;;;;;;;24.35;16.58;;;;;;;;;;5055266;28;20483;-63
2022/04/29 01:36:10;;;;;;;26.10;16.80;;;;;;;;;;5055812;28;20196;-63
2022/04/29 01:38:37;;;;;;;27.92;16.98;;;;;;;;;;5056244;28;20408;-63
2022/04/29 01:41:06;;;;;;;22.45;15.60;;;;;;;;;;5058670;22;20041;-61
2022/04/29 01:43:34;;;;;;;26.42;16.85;;;;;;;;;;5035077;28;20049;-61
2022/04/29 01:46:01;;;;;;;22.75;16.05;;;;;;;;;;5034896;28;20400;-61
2022/04/29 01:48:28;;;;;;;28.75;17.25;;;;;;;;;;5034901;28;20076;-61
2022/04/29 01:50:55;;;;;;;26.30;15.80;;;;;;;;;;5046664;28;20066;-61
2022/04/29 01:53:23;;;;;;;26.50;16.83;;;;;;;;;;5054993;28;20132;-60
2022/04/29 01:55:50;;;;;;;22.73;15.40;;;;;;;;;;5054628;28;20049;-61
2022/04/29 01:58:19;;;;;;;24.90;15.85;;;;;;;;;;5054707;28;20056;-61
2022/04/29 02:00:46;;;;;;;24.25;16.02;;;;;;;;;;5054719;28;20549;-61
2022/04/29 02:03:13;;;;;;;24.38;15.75;;;;;;;;;;5054673;28;20053;-62
2022/04/29 02:05:39;;;;;;;24.15;15.63;;;;;;;;;;5054468;28;20056;-60
2022/04/29 02:08:09;;;;;;;24.98;15.23;;;;;;;;;;5054452;28;20045;-62
2022/04/29 02:10:37;;;;;;;25.10;15.53;;;;;;;;;;5054528;28;20058;-60
2022/04/29 02:13:04;;;;;;;27.50;15.73;;;;;;;;;;5054927;28;20357;-61
2022/04/29 02:15:32;;;;;;;24.08;15.18;;;;;;;;;;5055143;28;20455;-59
2022/04/29 02:18:00;;;;;;;26.20;16.35;;;;;;;;;;5055558;28;20583;-59
2022/04/29 02:20:27;;;;;;;24.30;14.85;;;;;;;;;;5054530;28;20110;-60
2022/04/29 02:22:54;;;;;;;26.63;15.90;;;;;;;;;;5054599;28;20508;-59
2022/04/29 02:25:21;;;;;;;23.98;14.43;;;;;;;;;;5054378;28;20133;-60
2022/04/29 02:27:48;;;;;;;25.73;17.15;;;;;;;;;;5054287;28;20056;-59
2022/04/29 02:30:15;;;;;;;25.10;15.52;;;;;;;;;;5054377;28;20049;-60
2022/04/29 02:32:44;;;;;;;21.23;15.05;;;;;;;;;;5054373;28;20056;-60
2022/04/29 02:35:12;;;;;;;19.05;13.77;;;;;;;;;;5054222;28;20135;-60
2022/04/29 02:37:39;;;;;;;21.00;13.75;;;;;;;;;;5054258;28;20091;-60
2022/04/29 02:40:07;;;;;;;19.63;12.98;;;;;;;;;;5054100;28;20053;-60
2022/04/29 02:42:34;;;;;;;21.23;14.32;;;;;;;;;;5054177;28;20103;-59
2022/04/29 02:45:01;;;;;;;20.25;13.63;;;;;;;;;;5054040;28;20075;-60
2022/04/29 02:47:29;;;;;;;22.50;13.98;;;;;;;;;;5054144;28;20119;-60
2022/04/29 02:49:58;;;;;;;22.00;14.15;;;;;;;;;;5054137;28;20567;-60
2022/04/29 02:52:25;;;;;;;20.33;14.70;;;;;;;;;;5054242;28;20592;-60
2022/04/29 02:54:52;;;;;;;19.27;13.98;;;;;;;;;;5053825;28;20071;-59
2022/04/29 02:57:19;;;;;;;21.77;13.98;;;;;;;;;;5053970;28;20052;-60
2022/04/29 02:59:46;;;;;;;20.77;13.73;;;;;;;;;;5053893;28;20049;-59
2022/04/29 03:02:12;;;;;;;22.45;14.07;;;;;;;;;;5053918;28;20055;-57
2022/04/29 03:04:40;;;;;;;22.50;13.70;;;;;;;;;;5053732;28;20053;-59
2022/04/29 03:07:09;;;;;;;19.15;13.35;;;;;;;;;;5053225;28;20053;-60
2022/04/29 03:09:36;;;;;;;20.55;13.07;;;;;;;;;;5053709;28;20044;-60
2022/04/29 03:12:03;;;;;;;21.33;13.40;;;;;;;;;;5053610;28;20445;-60
2022/04/29 03:14:30;;;;;;;24.48;14.82;;;;;;;;;;5053506;28;20053;-60
2022/04/29 03:16:57;;;;;;;19.95;13.90;;;;;;;;;;5053402;28;20063;-60
2022/04/29 03:19:24;;;;;;;20.00;12.93;;;;;;;;;;5053336;28;20131;-60
2022/04/29 03:21:51;;;;;;;19.85;13.73;;;;;;;;;;5053431;28;20194;-59
2022/04/29 03:24:19;;;;;;;19.63;14.02;;;;;;;;;;5053406;28;20483;-61
2022/04/29 03:26:46;;;;;;;20.70;13.45;;;;;;;;;;5053695;28;20053;-60
2022/04/29 03:29:13;;;;;;;17.23;12.30;;;;;;;;;;5053821;28;20067;-59
2022/04/29 03:31:40;;;;;;;19.75;12.95;;;;;;;;;;5053429;28;20513;-59
2022/04/29 03:34:07;;;;;;;21.65;13.25;;;;;;;;;;5053735;28;20056;-59
2022/04/29 03:36:34;;;;;;;20.08;13.85;;;;;;;;;;5053023;28;20283;-59
2022/04/29 03:39:02;;;;;;;18.63;12.23;;;;;;;;;;5053275;28;20057;-60
2022/04/29 03:41:30;;;;;;;18.63;12.88;;;;;;;;;;5053069;28;20052;-60
2022/04/29 03:43:57;;;;;;;19.02;13.50;;;;;;;;;;5052869;28;20041;-60
2022/04/29 03:46:24;;;;;;;18.77;13.23;;;;;;;;;;5052762;28;20472;-59
2022/04/29 03:51:36;;;;;;;20.15;13.40;;;;;;;;;;5052849;28;20544;-60
2022/04/29 03:54:03;;;;;;;19.17;12.70;;;;;;;;;;5052986;28;20071;-59
2022/04/29 03:56:31;;;;;;;21.65;13.88;;;;;;;;;;5052914;28;20140;-59
2022/04/29 03:58:58;;;;;;;20.73;13.57;;;;;;;;;;5052685;28;20053;-58
2022/04/29 04:01:27;;;;;;;21.13;13.50;;;;;;;;;;5052834;28;20128;-59
2022/04/29 04:03:54;;;;;;;22.38;14.82;;;;;;;;;;5052783;28;20053;-58
2022/04/29 04:09:05;;;;;;;19.10;13.45;;;;;;;;;;5052433;28;20056;-59
2022/04/29 04:11:36;;;;;;;21.15;13.10;;;;;;;;;;5052187;28;20049;-58
2022/04/29 04:14:03;;;;;;;19.13;14.07;;;;;;;;;;5052749;28;20091;-57
2022/04/29 04:16:30;;;;;;;20.05;13.65;;;;;;;;;;5052459;28;20367;-58
2022/04/29 04:18:57;;;;;;;19.23;13.27;;;;;;;;;;5051700;28;20049;-59
2022/04/29 04:21:24;;;;;;;19.65;13.70;;;;;;;;;;5052402;28;20052;-59
2022/04/29 04:23:53;;;;;;;19.85;13.18;;;;;;;;;;5052511;28;20517;-59
2022/04/29 04:26:20;;;;;;;21.38;13.90;;;;;;;;;;5051928;28;20049;-58
2022/04/29 04:28:48;;;;;;;21.95;14.80;;;;;;;;;;5052637;28;20505;-59
2022/04/29 04:31:16;;;;;;;19.73;13.55;;;;;;;;;;5052516;28;20041;-57
2022/04/29 04:33:43;;;;;;;21.88;13.25;;;;;;;;;;5052060;28;20059;-58
2022/04/29 04:36:10;;;;;;;20.20;13.77;;;;;;;;;;5052670;28;20053;-59
2022/04/29 04:38:37;;;;;;;22.15;13.45;;;;;;;;;;5052608;28;20621;-59
2022/04/29 04:41:07;;;;;;;22.00;14.15;;;;;;;;;;5052366;28;20057;-59
2022/04/29 04:43:35;;;;;;;22.35;14.43;;;;;;;;;;5052568;28;20507;-58
2022/04/29 04:46:06;;;;;;;21.65;14.13;;;;;;;;;;5052036;28;20417;-59
2022/04/29 04:48:32;;;;;;;;;;;;;;;;;;5052603;28;20490;-57
2022/04/29 04:51:01;;;;;;;21.20;12.05;;;;;;;;;;5051975;28;19920;-58
2022/04/29 04:53:28;;;;;;;22.00;13.40;;;;;;;;;;5052081;28;20061;-58
2022/04/29 04:55:55;;;;;;;17.83;12.32;;;;;;;;;;5052095;28;20052;-58
2022/04/29 04:58:23;;;;;;;17.58;11.80;;;;;;;;;;5051887;28;20064;-59
2022/04/29 05:00:50;;;;;;;18.92;12.55;;;;;;;;;;5052152;28;20107;-59
2022/04/29 05:03:18;;;;;;;17.23;12.55;;;;;;;;;;5051780;28;20053;-60
2022/04/29 05:05:45;;;;;;;17.70;12.57;;;;;;;;;;5051956;28;20063;-59
2022/04/29 05:08:12;;;;;;;19.10;13.18;;;;;;;;;;5052233;28;20049;-59
2022/04/29 05:10:39;;;;;;;21.80;14.82;;;;;;;;;;5052200;28;20127;-59
2022/04/29 05:13:06;;;;;;;20.73;12.80;;;;;;;;;;5052135;28;20052;-56
2022/04/29 05:15:34;;;;;;;17.00;11.30;;;;;;;;;;5051939;28;20055;-58
2022/04/29 05:18:00;;;;;;;15.48;11.48;;;;;;;;;;5052125;28;20059;-59
2022/04/29 05:20:29;;;;;;;18.35;11.93;;;;;;;;;;5052840;28;20579;-57
2022/04/29 05:22:56;;;;;;;19.38;12.80;;;;;;;;;;5052315;28;20505;-59
2022/04/29 05:25:23;;;;;;;16.73;11.90;;;;;;;;;;5051970;28;20053;-59
2022/04/29 05:27:50;;;;;;;19.13;12.20;;;;;;;;;;5051836;28;20049;-59
2022/04/29 05:30:17;;;;;;;19.13;12.75;;;;;;;;;;5053224;28;20049;-59
2022/04/29 05:32:44;;;;;;;18.42;12.45;;;;;;;;;;5055914;28;20048;-58
2022/04/29 05:35:11;;;;;;;18.73;12.55;;;;;;;;;;5055625;28;20049;-60
2022/04/29 05:37:40;;;;;;;20.13;13.05;;;;;;;;;;5055550;28;20053;-59
2022/04/29 05:42:53;;;;;;;20.20;12.63;;;;;;;;;;5055480;28;20578;-59
2022/04/29 05:45:20;;;;;;;17.95;12.10;;;;;;;;;;5055089;28;20416;-60
2022/04/29 05:47:47;;;;;;;15.38;11.50;;;;;;;;;;5055459;28;20049;-59
2022/04/29 05:50:14;;;;;;;15.82;11.30;;;;;;;;;;5055150;28;20056;-60
2022/04/29 05:52:43;;;;;;;15.18;11.40;;;;;;;;;;5055204;28;20049;-59
2022/04/29 05:55:11;;;;;;;18.50;12.00;;;;;;;;;;5055343;28;20048;-60
2022/04/29 05:57:38;;;;;;;18.50;11.43;;;;;;;;;;5055019;28;20049;-59
2022/04/29 06:00:06;;;;;;;14.98;11.25;;;;;;;;;;5054845;28;20051;-59
2022/04/29 06:02:35;;;;;;;16.85;11.07;;;;;;;;;;5055264;28;20137;-59
2022/04/29 06:05:02;;;;;;;25.25;11.27;;;;;;;;;;5054912;28;20084;-60
2022/04/29 06:07:29;;;;;;;18.55;11.30;;;;;;;;;;5054927;28;20060;-58
2022/04/29 06:09:57;;;;;;;18.67;11.18;;;;;;;;;;5055006;28;20140;-58
2022/04/29 06:12:25;;;;;;;15.77;12.50;;;;;;;;;;5054811;28;20060;-59
2022/04/29 06:14:51;;;;;;;15.25;10.95;;;;;;;;;;5054906;28;20696;-60
2022/04/29 06:17:21;;;;;;;14.88;10.73;;;;;;;;;;5054806;28;20059;-60
2022/04/29 06:19:48;;;;;;;16.10;10.55;;;;;;;;;;5054869;28;20083;-60
2022/04/29 06:22:15;;;;;;;14.73;10.00;;;;;;;;;;5055204;28;20512;-59
2022/04/29 06:24:44;;;;;;;16.70;10.52;;;;;;;;;;5054235;28;20045;-60
2022/04/29 06:27:12;;;;;;;13.88;10.50;;;;;;;;;;5054865;28;20059;-57
2022/04/29 06:29:39;;;;;;;14.57;10.65;;;;;;;;;;5054204;28;20049;-59
2022/04/29 06:32:07;;;;;;;17.92;9.93;;;;;;;;;;5054104;28;20052;-59
2022/04/29 06:34:34;;;;;;;15.32;10.38;;;;;;;;;;5054531;28;20585;-60
2022/04/29 06:37:01;;;;;;;18.13;10.93;;;;;;;;;;5054341;28;20049;-60
2022/04/29 06:39:28;;;;;;;19.25;10.02;;;;;;;;;;5054961;28;20049;-58
2022/04/29 06:41:55;;;;;;;16.75;10.23;;;;;;;;;;5053551;28;20056;-60
2022/04/29 06:44:23;;;;;;;13.88;9.23;;;;;;;;;;5054697;28;20102;-58
2022/04/29 06:46:51;;;;;;;17.33;10.90;;;;;;;;;;5054019;28;20052;-59
2022/04/29 06:49:18;;;;;;;15.90;9.77;;;;;;;;;;5054084;28;20049;-60
2022/04/29 06:51:45;;;;;;;15.35;10.73;;;;;;;;;;5053984;28;20131;-59
2022/04/29 06:54:12;;;;;;;15.00;10.13;;;;;;;;;;5053956;28;20045;-59
2022/04/29 06:56:39;;;;;;;19.25;11.07;;;;;;;;;;5057502;28;20084;-59
2022/04/29 06:59:06;;;;;;;14.95;9.60;;;;;;;;;;5052733;28;20045;-59
2022/04/29 07:01:34;;;;;;;12.73;9.52;;;;;;;;;;5052095;28;20049;-59
2022/04/29 07:04:01;;;;;;;16.42;10.30;;;;;;;;;;5053350;28;20505;-60
2022/04/29 07:06:28;;;;;;;15.95;10.35;;;;;;;;;;5052569;28;20139;-59
2022/04/29 07:08:55;;;;;;;12.82;9.07;;;;;;;;;;5053082;28;20092;-59
2022/04/29 07:11:22;;;;;;;14.98;9.52;;;;;;;;;;5052578;28;20049;-58
2022/04/29 07:13:51;;;;;;;12.80;9.45;;;;;;;;;;5052680;28;20056;-59
2022/04/29 07:16:19;;;;;;;14.32;10.32;;;;;;;;;;5052607;28;20053;-58
2022/04/29 07:18:47;;;;;;;14.93;9.73;;;;;;;;;;5051593;28;20056;-59
2022/04/29 07:21:14;;;;;;;13.45;9.43;;;;;;;;;;5052589;28;20057;-59
2022/04/29 07:23:41;;;;;;;15.75;9.18;;;;;;;;;;5052316;28;20055;-59
2022/04/29 07:26:08;;;;;;;15.13;9.55;;;;;;;;;;5052367;28;20140;-58
2022/04/29 07:28:35;;;;;;;14.80;9.60;;;;;;;;;;5052504;28;20059;-59
2022/04/29 07:31:02;;;;;;;13.25;9.70;;;;;;;;;;5052078;28;20049;-59
2022/04/29 07:33:29;;;;;;;15.27;9.48;;;;;;;;;;5052956;28;20049;-58
2022/04/29 07:44:12;;;;;;;14.52;9.40;;;;;;;;;;5053369;28;20072;-59
2022/04/29 07:46:39;;;;;;;14.40;9.45;;;;;;;;;;5052610;28;20124;-59
2022/04/29 07:49:07;;;;;;;15.70;9.27;;;;;;;;;;5052312;28;20132;-58
2022/04/29 07:51:35;;;;;;;15.68;9.10;;;;;;;;;;5051370;28;20052;-58
2022/04/29 07:54:02;;;;;;;12.93;9.95;;;;;;;;;;5048137;22;20050;-67
2022/04/29 07:56:29;;;;;;;12.48;8.82;;;;;;;;;;5010537;28;20119;-66
2022/04/29 07:58:57;;;;;;;15.45;9.27;;;;;;;;;;5011534;28;20053;-67
2022/04/29 08:01:25;;;;;;;13.55;9.38;;;;;;;;;;5027029;28;20053;-66
2022/04/29 08:03:53;;;;;;;14.20;9.40;;;;;;;;;;5031721;28;20049;-67
2022/04/29 08:06:20;;;;;;;16.92;10.07;;;;;;;;;;5030895;28;20045;-66
2022/04/29 08:08:49;;;;;;;14.57;9.57;;;;;;;;;;5030639;28;20081;-67
2022/04/29 08:11:17;;;;;;;13.90;8.88;;;;;;;;;;5031061;28;20049;-66
2022/04/29 08:13:45;;;;;;;14.38;10.00;;;;;;;;;;5031099;28;20139;-67
2022/04/29 08:16:12;;;;;;;13.98;10.40;;;;;;;;;;5031210;28;20068;-67
2022/04/29 08:18:39;;;;;;;17.05;9.38;;;;;;;;;;5031240;28;20037;-67
2022/04/29 08:21:06;;;;;;;13.93;8.98;;;;;;;;;;5030845;28;20479;-66
2022/04/29 08:23:33;;;;;;;12.82;8.45;;;;;;;;;;5031157;28;20446;-67
2022/04/29 08:26:01;;;;;;;12.80;8.13;;;;;;;;;;5031436;28;20440;-66
2022/04/29 08:28:29;;;;;;;12.25;8.43;;;;;;;;;;5031428;28;20136;-67
2022/04/29 08:30:56;;;;;;;13.32;8.45;;;;;;;;;;5031354;28;20129;-67
2022/04/29 08:33:24;;;;;;;11.80;8.07;;;;;;;;;;5031456;28;20572;-69
2022/04/29 08:35:51;;;;;;;12.32;8.88;;;;;;;;;;5030763;28;20084;-69
2022/04/29 08:38:19;;;;;;;13.00;8.20;;;;;;;;;;5032162;28;20053;-68
2022/04/29 08:40:47;;;;;;;14.38;9.07;;;;;;;;;;5030632;28;20068;-67
2022/04/29 08:43:17;;;;;;;11.80;7.32;;;;;;;;;;5030715;28;20104;-67
2022/04/29 08:45:44;;;;;;;12.48;7.10;;;;;;;;;;5030550;28;20387;-67
2022/04/29 08:48:12;;;;;;;12.07;7.10;;;;;;;;;;5030888;28;20085;-67
2022/04/29 08:50:40;;;;;;;10.75;7.60;;;;;;;;;;5030322;28;20088;-67
2022/04/29 08:53:07;;;;;;;10.95;6.63;;;;;;;;;;5030890;28;20441;-66
2022/04/29 08:58:39;;;;;;;14.80;6.90;;;;;;;;;;5031119;28;20539;-66
2022/04/29 09:01:09;;;;;;;9.75;6.95;;;;;;;;;;5030969;28;20423;-66
2022/04/29 09:03:37;;;;;;;9.40;6.50;;;;;;;;;;5030360;28;20568;-67
2022/04/29 09:06:06;;;;;;;9.75;6.78;;;;;;;;;;5032647;28;20107;-67
2022/04/29 09:08:40;;;;;;;11.38;6.68;;;;;;;;;;5034097;28;20054;-67
2022/04/29 09:11:07;;;;;;;10.65;6.50;;;;;;;;;;5034101;28;20140;-67
2022/04/29 09:13:38;;;;;;;10.00;6.88;;;;;;;;;;5033767;28;20073;-67
2022/04/29 09:16:07;;;;;;;11.07;7.88;;;;;;;;;;5033914;28;20049;-67
2022/04/29 09:18:35;;;;;;;11.27;6.85;;;;;;;;;;5034194;28;20144;-67
2022/04/29 09:21:08;;;;;;;9.82;6.97;;;;;;;;;;5033286;28;20053;-67
2022/04/29 09:23:37;;;;;;;9.73;6.78;;;;;;;;;;5034974;28;20061;-68
2022/04/29 09:26:06;;;;;;;13.32;7.65;;;;;;;;;;5034477;28;20049;-67
2022/04/29 09:28:35;;;;;;;13.75;7.28;;;;;;;;;;5034064;28;20045;-66
2022/04/29 09:31:03;;;;;;;9.05;7.15;;;;;;;;;;5033340;28;20049;-67
2022/04/29 09:33:32;;;;;;;12.68;7.50;;;;;;;;;;5033794;28;20045;-66
2022/04/29 09:35:59;;;;;;;10.07;6.22;;;;;;;;;;5033704;28;20068;-66
2022/04/29 09:41:22;;;;;;;9.07;6.68;;;;;;;;;;5033356;28;20107;-67
2022/04/29 09:43:51;;;;;;;14.25;6.45;;;;;;;;;;5033530;28;20061;-68
2022/04/29 09:46:20;;;;;;;11.77;7.03;;;;;;;;;;5033977;28;20095;-68
2022/04/29 09:49:02;;;;;;;10.60;7.32;;;;;;;;;;5034096;28;20059;-66
2022/04/29 09:51:41;;;;;;;13.30;7.25;;;;;;;;;;5033676;28;20049;-67
2022/04/29 09:54:09;;;;;;;13.35;7.72;;;;;;;;;;5033636;28;20061;-66
2022/04/29 09:56:37;;;;;;;11.65;7.75;;;;;;;;;;5033399;28;20051;-66
2022/04/29 09:59:08;;;;;;;9.98;6.10;;;;;;;;;;5033475;28;20501;-67
2022/04/29 10:01:36;;;;;;;10.98;7.28;;;;;;;;;;5033865;28;20134;-67
2022/04/29 10:04:04;;;;;;;10.38;7.03;;;;;;;;;;5033993;28;20414;-68
2022/04/29 10:06:33;;;;;;;9.82;6.50;;;;;;;;;;5033159;28;20049;-68
2022/04/29 10:09:01;;;;;;;12.50;6.47;;;;;;;;;;5033603;28;20046;-68
2022/04/29 10:11:29;;;;;;;10.50;6.95;;;;;;;;;;5033548;28;20088;-67
2022/04/29 10:14:04;;;;;;;11.07;7.50;;;;;;;;;;5033107;28;20498;-68
2022/04/29 10:16:34;;;;;;;12.15;6.57;;;;;;;;;;5031939;28;20236;-68
2022/04/29 10:21:51;;;;;;;12.05;7.13;;;;;;;;;;5033242;28;20425;-68
2022/04/29 10:24:18;;;;;;;9.57;6.95;;;;;;;;;;5032203;28;20136;-68
2022/04/29 10:26:49;;;;;;;11.38;6.57;;;;;;;;;;5029217;28;20085;-68
2022/04/29 10:29:16;;;;;;;11.63;8.32;;;;;;;;;;5012781;28;20484;-68
2022/04/29 10:32:05;;;;;;;12.25;8.05;;;;;;;;;;5013183;28;20525;-68
2022/04/29 10:34:33;;;;;;;9.32;6.68;;;;;;;;;;5012686;28;20073;-68
2022/04/29 10:37:00;;;;;;;9.18;6.75;;;;;;;;;;5011662;28;20060;-68
2022/04/29 10:39:27;;;;;;;10.23;6.47;;;;;;;;;;5012831;28;20057;-69
2022/04/29 10:42:03;;;;;;;10.88;6.70;;;;;;;;;;5012796;28;20137;-68
2022/04/29 10:44:30;;;;;;;11.23;7.93;;;;;;;;;;5012654;28;20237;-68
2022/04/29 10:47:31;;;;;;;9.50;6.80;;;;;;;;;;5026959;28;20064;-67
2022/04/29 10:50:31;;;;;;;12.75;8.40;;;;;;;;;;5032600;28;20232;-68
2022/04/29 10:53:03;;;;;;;11.23;8.10;;;;;;;;;;5025692;28;20065;-67
2022/04/29 10:55:31;;;;;;;9.82;6.78;;;;;;;;;;5031778;28;20518;-67
2022/04/29 10:58:02;;;;;;;9.90;6.82;;;;;;;;;;5032264;28;20076;-68
2022/04/29 11:00:30;;;;;;;10.38;6.38;;;;;;;;;;5033066;28;20546;-68
2022/04/29 11:03:37;;;;;;;9.40;6.07;;;;;;;;;;5032149;28;20091;-68
2022/04/29 11:06:12;;;;;;;9.77;7.03;;;;;;;;;;5032072;28;20414;-68
2022/04/29 11:08:39;;;;;;;11.93;8.48;;;;;;;;;;5031936;28;20041;-68
2022/04/29 11:11:07;;;;;;;11.45;6.93;;;;;;;;;;5031845;28;20642;-69
2022/04/29 11:13:36;;;;;;;9.38;7.00;;;;;;;;;;5031636;28;20528;-68
2022/04/29 11:16:11;;;;;;;10.98;6.80;;;;;;;;;;5032045;28;20045;-67
2022/04/29 11:18:40;;;;;;;10.52;7.00;;;;;;;;;;5032621;28;20100;-68
2022/04/29 11:26:46;;;;;;;11.88;6.72;;;;;;;;;;5031337;28;20076;-68
2022/04/29 11:29:13;;;;;;;11.63;8.35;;;;;;;;;;5031167;28;20491;-67
2022/04/29 11:31:40;;;;;;;10.60;7.63;;;;;;;;;;5031962;28;20498;-68
2022/04/29 11:34:10;;;;;;;13.98;7.47;;;;;;;;;;5032216;28;20128;-67
2022/04/29 11:36:39;;;;;;;12.63;8.10;;;;;;;;;;5030681;28;20503;-66
2022/04/29 11:39:14;;;;;;;11.10;7.53;;;;;;;;;;5031658;28;20050;-67
2022/04/29 11:41:54;;;;;;;11.68;7.22;;;;;;;;;;5031491;28;20071;-67
2022/04/29 11:44:34;;;;;;;11.30;7.70;;;;;;;;;;5031568;28;20057;-67
2022/04/29 11:47:01;;;;;;;12.07;7.80;;;;;;;;;;5031542;28;20286;-67
2022/04/29 11:49:32;;;;;;;10.48;7.20;;;;;;;;;;5031330;28;20081;-66
2022/04/29 11:52:23;;;;;;;10.98;6.97;;;;;;;;;;5031510;28;20119;-67
2022/04/29 11:54:52;;;;;;;15.75;9.80;;;;;;;;;;5030658;28;20057;-67
2022/04/29 11:57:20;;;;;;;14.32;9.38;;;;;;;;;;5011926;28;20057;-67
2022/04/29 11:59:47;;;;;;;13.68;9.40;;;;;;;;;;5011049;28;20089;-66
2022/04/29 12:02:18;;;;;;;15.18;10.75;;;;;;;;;;5011729;28;20145;-67
2022/04/29 12:04:57;;;;;;;15.88;10.38;;;;;;;;;;5010945;28;20057;-67
2022/04/29 12:07:26;;;;;;;;;;;;;;;;;;5026744;28;20056;-67
2022/04/29 12:09:53;;;;;;;10.73;7.65;;;;;;;;;;5010564;28;19968;-66
2022/04/29 12:12:25;;;;;;;15.18;10.73;;;;;;;;;;5010853;28;20050;-66
2022/04/29 12:14:52;;;;;;;13.77;9.48;;;;;;;;;;5010582;28;20050;-66
2022/04/29 12:17:19;;;;;;;16.45;11.05;;;;;;;;;;5010974;28;20052;-66
2022/04/29 12:19:56;;;;;;;16.83;11.18;;;;;;;;;;5010729;28;20092;-66
2022/04/29 12:22:30;;;;;;;20.38;14.90;;;;;;;;;;5010989;28;20050;-66
2022/04/29 12:24:58;;;;;;;13.40;9.75;;;;;;;;;;5010944;28;20058;-66
2022/04/29 12:27:32;;;;;;;13.15;9.38;;;;;;;;;;5011181;28;20046;-67
2022/04/29 12:35:29;;;;;;;14.20;9.93;;;;;;;;;;5029985;28;20071;-67
2022/04/29 12:37:57;;;;;;;12.77;9.60;;;;;;;;;;5030272;28;20060;-66
2022/04/29 12:40:29;;;;;;;14.07;10.52;;;;;;;;;;5028858;28;20068;-67
2022/04/29 12:43:10;;;;;;;16.23;10.63;;;;;;;;;;5029934;28;20049;-66
2022/04/29 12:45:37;;;;;;;14.50;10.55;;;;;;;;;;5026538;28;20042;-67
2022/04/29 12:48:06;;;;;;;20.35;14.48;;;;;;;;;;5010547;28;20335;-67
2022/04/29 12:50:37;;;;;;;14.32;10.30;;;;;;;;;;5011076;28;20483;-67
2022/04/29 12:53:08;;;;;;;13.05;8.55;;;;;;;;;;5010459;28;20054;-67
2022/04/29 12:55:37;;;;;;;10.88;7.70;;;;;;;;;;5010537;28;20052;-66
2022/04/29 12:58:06;;;;;;;12.05;7.95;;;;;;;;;;5010909;28;20057;-66
2022/04/29 13:00:34;;;;;;;11.70;8.45;;;;;;;;;;5010679;28;20129;-66
2022/04/29 13:03:03;;;;;;;13.95;9.30;;;;;;;;;;5010600;28;20046;-66
2022/04/29 13:05:31;;;;;;;11.02;8.75;;;;;;;;;;5010429;28;20057;-66
2022/04/29 13:07:58;;;;;;;14.18;8.48;;;;;;;;;;5017778;28;20050;-67
2022/04/29 13:10:27;;;;;;;12.95;9.00;;;;;;;;;;5030268;28;20139;-67
2022/04/29 13:12:55;;;;;;;12.27;9.00;;;;;;;;;;5030459;28;20053;-67
2022/04/29 13:15:22;;;;;;;12.25;8.43;;;;;;;;;;5030777;28;20057;-66
2022/04/29 13:17:49;;;;;;;13.00;10.18;;;;;;;;;;5030890;28;20056;-67
2022/04/29 13:20:17;;;;;;;16.05;11.52;;;;;;;;;;5030237;28;20060;-67
2022/04/29 13:22:44;;;;;;;10.73;8.57;;;;;;;;;;5030201;28;20502;-67
2022/04/29 13:25:11;;;;;;;12.60;8.93;;;;;;;;;;5030530;28;20466;-67
2022/04/29 13:27:39;;;;;;;13.93;8.73;;;;;;;;;;5030303;28;20053;-67
2022/04/29 13:30:07;;;;;;;12.70;9.02;;;;;;;;;;5030229;28;20272;-66
2022/04/29 13:32:34;;;;;;;13.15;9.40;;;;;;;;;;5030212;28;20046;-66
2022/04/29 13:35:01;;;;;;;10.88;8.68;;;;;;;;;;5030479;28;20053;-66
2022/04/29 13:37:32;;;;;;;14.15;9.10;;;;;;;;;;5031758;28;20056;-66
2022/04/29 13:40:01;;;;;;;11.98;7.65;;;;;;;;;;5032681;28;20394;-68
2022/04/29 13:42:29;;;;;;;14.73;11.45;;;;;;;;;;5032276;28;20045;-67
2022/04/29 13:44:58;;;;;;;12.60;9.30;;;;;;;;;;5032407;28;20088;-66
2022/04/29 13:47:25;;;;;;;13.60;8.40;;;;;;;;;;5032052;28;20053;-66
2022/04/29 13:49:52;;;;;;;11.80;8.18;;;;;;;;;;5032107;28;20059;-66
2022/04/29 13:55:04;;;;;;;12.57;9.18;;;;;;;;;;5042095;22;20061;-78
2022/04/29 13:57:32;;;;;;;11.57;8.55;;;;;;;;;;5015477;28;20112;-78
2022/04/29 14:00:01;;;;;;;11.43;7.47;;;;;;;;;;5015433;28;20081;-78
2022/04/29 14:02:28;;;;;;;12.00;7.78;;;;;;;;;;5015168;28;20393;-78
2022/04/29 14:04:55;;;;;;;12.88;8.63;;;;;;;;;;5025298;28;20049;-76
2022/04/29 14:07:22;;;;;;;11.75;8.45;;;;;;;;;;5035496;28;20073;-77
2022/04/29 14:09:49;;;;;;;11.98;8.15;;;;;;;;;;5034991;28;20128;-76
2022/04/29 14:12:16;;;;;;;14.73;11.30;;;;;;;;;;5034819;28;20049;-77
2022/04/29 14:14:43;;;;;;;10.93;7.82;;;;;;;;;;5034777;28;20049;-78
2022/04/29 14:17:11;;;;;;;11.77;8.85;;;;;;;;;;5035490;28;20087;-77
2022/04/29 14:19:38;;;;;;;9.82;7.25;;;;;;;;;;5035119;28;20056;-77
2022/04/29 14:22:05;;;;;;;11.65;7.95;;;;;;;;;;5035381;28;20053;-77
2022/04/29 14:24:33;;;;;;;10.70;7.50;;;;;;;;;;5034465;28;20070;-77
2022/04/29 14:27:00;;;;;;;11.52;7.55;;;;;;;;;;5035098;28;20045;-77
2022/04/29 14:29:27;;;;;;;10.73;6.88;;;;;;;;;;5034548;28;20045;-77
2022/04/29 14:31:56;;;;;;;8.55;7.05;;;;;;;;;;5035840;28;20488;-79
2022/04/29 14:34:24;;;;;;;10.32;6.80;;;;;;;;;;5036555;28;20054;-79
2022/04/29 14:36:51;;;;;;;9.10;6.72;;;;;;;;;;5036811;28;20487;-78
2022/04/29 14:39:19;;;;;;;9.57;6.78;;;;;;;;;;5038568;28;20478;-80
2022/04/29 14:41:45;;;;;;;10.20;7.43;;;;;;;;;;5036004;28;20041;-78
2022/04/29 14:44:12;;;;;;;11.68;7.38;;;;;;;;;;5035984;28;20124;-77
2022/04/29 14:46:40;;;;;;;10.57;7.18;;;;;;;;;;5024188;28;20053;-78
2022/04/29 14:49:07;;;;;;;10.35;7.35;;;;;;;;;;5017143;28;20409;-78
2022/04/29 14:51:36;;;;;;;10.93;7.68;;;;;;;;;;5013302;28;20096;-78
2022/04/29 14:54:03;;;;;;;9.43;7.20;;;;;;;;;;5013746;28;20114;-78
2022/04/29 14:56:30;;;;;;;8.95;7.00;;;;;;;;;;5014318;28;20580;-78
2022/04/29 14:58:57;;;;;;;12.50;8.57;;;;;;;;;;5014343;28;20046;-76
2022/04/29 15:01:23;;;;;;;10.38;7.15;;;;;;;;;;5014498;28;20050;-78
2022/04/29 15:03:52;;;;;;;10.35;7.63;;;;;;;;;;5014459;28;20470;-79
2022/04/29 15:06:19;;;;;;;9.10;6.10;;;;;;;;;;5014493;28;20129;-78
2022/04/29 15:08:47;;;;;;;10.27;7.05;;;;;;;;;;5014717;28;20053;-78
2022/04/29 15:16:42;;;;;;;10.10;7.32;;;;;;;;;;5012758;28;20516;-77
2022/04/29 15:19:09;;;;;;;9.90;7.20;;;;;;;;;;5012717;28;20050;-77